MTN324 KSLC-KMSO
Flight info
| Callsign | MTN324 |
|---|---|
| Flight time | 1h 3m |
| Altitude | 32000 |
| Route | RUGGD3 HOLTR DBS MSO |
| Aircraft | E75L/M-SDE3GILORVW/S |
Departure
| Time | 2026-05-04 01:16 |
|---|---|
| Airport | Salt Lake City International Airport (KSLC) |
Arrival
| Time | 2026-05-04 02:19 |
|---|---|
| Airport | Missoula Montana Airport (KMSO) |
| Time | Latitude | Longitude | Altitude | Speed | Heading |
|---|---|---|---|---|---|
| 2026-05-04 00:58 | 40.78824 | -111.98832 | 4229 ft | 0 kts | 355° |
| 2026-05-04 01:08 | 40.78810 | -111.98831 | 4229 ft | 4 kts | 355° |
| 2026-05-04 01:08 | 40.78783 | -111.98826 | 4229 ft | 4 kts | 346° |
| 2026-05-04 01:08 | 40.78760 | -111.98811 | 4229 ft | 4 kts | 310° |
| 2026-05-04 01:08 | 40.78755 | -111.98789 | 4229 ft | 1 kts | 264° |
| 2026-05-04 01:09 | 40.78755 | -111.98784 | 4229 ft | 0 kts | 264° |
| 2026-05-04 01:10 | 40.78755 | -111.98787 | 4229 ft | 1 kts | 264° |
| 2026-05-04 01:11 | 40.78752 | -111.98823 | 4229 ft | 7 kts | 264° |
| 2026-05-04 01:11 | 40.78746 | -111.98910 | 4229 ft | 13 kts | 265° |
| 2026-05-04 01:11 | 40.78736 | -111.99049 | 4229 ft | 17 kts | 264° |
| 2026-05-04 01:11 | 40.78726 | -111.99205 | 4229 ft | 18 kts | 268° |
| 2026-05-04 01:12 | 40.78720 | -111.99370 | 4229 ft | 16 kts | 264° |
| 2026-05-04 01:12 | 40.78697 | -111.99462 | 4229 ft | 10 kts | 206° |
| 2026-05-04 01:12 | 40.78617 | -111.99461 | 4229 ft | 14 kts | 175° |
| 2026-05-04 01:12 | 40.78501 | -111.99448 | 4229 ft | 20 kts | 174° |
| 2026-05-04 01:13 | 40.78353 | -111.99429 | 4229 ft | 22 kts | 174° |
| 2026-05-04 01:13 | 40.78200 | -111.99412 | 4229 ft | 20 kts | 175° |
| 2026-05-04 01:13 | 40.78057 | -111.99421 | 4229 ft | 21 kts | 193° |
| 2026-05-04 01:13 | 40.77909 | -111.99433 | 4229 ft | 22 kts | 175° |
| 2026-05-04 01:14 | 40.77757 | -111.99415 | 4229 ft | 21 kts | 175° |
| 2026-05-04 01:14 | 40.77615 | -111.99398 | 4230 ft | 15 kts | 175° |
| 2026-05-04 01:14 | 40.77540 | -111.99405 | 4230 ft | 11 kts | 218° |
| 2026-05-04 01:14 | 40.77520 | -111.99496 | 4231 ft | 10 kts | 266° |
| 2026-05-04 01:15 | 40.77540 | -111.99549 | 4232 ft | 7 kts | 346° |
| 2026-05-04 01:15 | 40.77626 | -111.99561 | 4231 ft | 35 kts | 355° |
| 2026-05-04 01:15 | 40.78137 | -111.99623 | 4227 ft | 111 kts | 355° |
| 2026-05-04 01:15 | 40.79124 | -111.99738 | 4317 ft | 166 kts | 355° |
| 2026-05-04 01:16 | 40.80330 | -111.99901 | 5095 ft | 177 kts | 351° |
| 2026-05-04 01:16 | 40.81583 | -112.00179 | 5775 ft | 188 kts | 350° |
| 2026-05-04 01:16 | 40.82924 | -112.00480 | 6475 ft | 202 kts | 350° |
| 2026-05-04 01:16 | 40.84355 | -112.00783 | 7244 ft | 214 kts | 351° |
| 2026-05-04 01:17 | 40.85881 | -112.01091 | 7934 ft | 229 kts | 350° |
| 2026-05-04 01:17 | 40.87528 | -112.01413 | 8520 ft | 250 kts | 351° |
| 2026-05-04 01:17 | 40.89363 | -112.01599 | 9085 ft | 277 kts | 2° |
| 2026-05-04 01:17 | 40.91323 | -112.01399 | 10010 ft | 286 kts | 2° |
| 2026-05-04 01:18 | 40.93359 | -112.01305 | 10584 ft | 309 kts | 360° |
| 2026-05-04 01:18 | 40.95589 | -112.01303 | 11088 ft | 332 kts | 358° |
| 2026-05-04 01:18 | 40.97954 | -112.01383 | 11773 ft | 347 kts | 357° |
| 2026-05-04 01:18 | 41.00403 | -112.01485 | 12655 ft | 356 kts | 357° |
| 2026-05-04 01:19 | 41.02892 | -112.01450 | 13636 ft | 362 kts | 7° |
| 2026-05-04 01:19 | 41.05253 | -112.00276 | 14576 ft | 368 kts | 33° |
| 2026-05-04 01:19 | 41.07039 | -111.97845 | 15547 ft | 374 kts | 58° |
| 2026-05-04 01:19 | 41.08157 | -111.94719 | 16476 ft | 377 kts | 68° |
| 2026-05-04 01:20 | 41.09133 | -111.91458 | 17330 ft | 383 kts | 69° |
| 2026-05-04 01:20 | 41.09789 | -111.89275 | 17872 ft | 387 kts | 69° |
| 2026-05-04 01:20 | 41.10784 | -111.85923 | 18639 ft | 394 kts | 70° |
| 2026-05-04 01:20 | 41.11749 | -111.82493 | 19350 ft | 399 kts | 71° |
| 2026-05-04 01:21 | 41.12799 | -111.79068 | 20030 ft | 405 kts | 60° |
| 2026-05-04 01:21 | 41.15431 | -111.75581 | 20963 ft | 410 kts | 28° |
| 2026-05-04 01:21 | 41.17212 | -111.74634 | 21445 ft | 409 kts | 13° |
| 2026-05-04 01:21 | 41.20015 | -111.74015 | 22147 ft | 410 kts | 5° |
| 2026-05-04 01:22 | 41.22860 | -111.73561 | 22775 ft | 413 kts | 6° |
| 2026-05-04 01:22 | 41.25720 | -111.73039 | 23363 ft | 417 kts | 6° |
| 2026-05-04 01:22 | 41.28609 | -111.72513 | 23921 ft | 421 kts | 6° |
| 2026-05-04 01:22 | 41.31520 | -111.71992 | 24485 ft | 423 kts | 6° |
| 2026-05-04 01:23 | 41.34451 | -111.71490 | 25019 ft | 427 kts | 6° |
| 2026-05-04 01:23 | 41.37415 | -111.71007 | 25592 ft | 428 kts | 5° |
| 2026-05-04 01:23 | 41.40309 | -111.70329 | 26229 ft | 428 kts | 13° |
| 2026-05-04 01:23 | 41.43171 | -111.69232 | 26936 ft | 427 kts | 15° |
| 2026-05-04 01:24 | 41.46009 | -111.68107 | 27624 ft | 425 kts | 15° |
| 2026-05-04 01:24 | 41.48845 | -111.66984 | 28296 ft | 423 kts | 15° |
| 2026-05-04 01:24 | 41.51663 | -111.65872 | 28957 ft | 422 kts | 15° |
| 2026-05-04 01:24 | 41.54486 | -111.64755 | 29607 ft | 421 kts | 15° |
| 2026-05-04 01:25 | 41.57294 | -111.63644 | 30203 ft | 420 kts | 15° |
| 2026-05-04 01:25 | 41.60097 | -111.62536 | 30782 ft | 419 kts | 15° |
| 2026-05-04 01:25 | 41.62881 | -111.61432 | 31347 ft | 417 kts | 15° |
| 2026-05-04 01:25 | 41.65655 | -111.60331 | 31900 ft | 414 kts | 14° |
| 2026-05-04 01:26 | 41.68404 | -111.59239 | 31992 ft | 422 kts | 14° |
| 2026-05-04 01:26 | 41.74129 | -111.56963 | 32002 ft | 435 kts | 14° |
| 2026-05-04 01:27 | 41.80028 | -111.54705 | 32032 ft | 445 kts | 9° |
| 2026-05-04 01:27 | 41.86197 | -111.53266 | 31898 ft | 452 kts | 7° |
| 2026-05-04 01:28 | 41.92440 | -111.51863 | 31892 ft | 456 kts | 7° |
| 2026-05-04 01:28 | 41.98711 | -111.50449 | 31888 ft | 457 kts | 7° |
| 2026-05-04 01:29 | 42.04944 | -111.49041 | 31889 ft | 456 kts | 7° |
| 2026-05-04 01:29 | 42.11212 | -111.47622 | 31896 ft | 457 kts | 7° |
| 2026-05-04 01:30 | 42.17481 | -111.46197 | 31905 ft | 457 kts | 7° |
| 2026-05-04 01:30 | 42.23749 | -111.44770 | 31902 ft | 456 kts | 7° |
| 2026-05-04 01:31 | 42.30021 | -111.43774 | 31906 ft | 451 kts | 353° |
| 2026-05-04 01:31 | 42.33033 | -111.44592 | 31940 ft | 446 kts | 341° |
| 2026-05-04 01:31 | 42.35998 | -111.45844 | 31906 ft | 446 kts | 340° |
| 2026-05-04 01:32 | 42.41901 | -111.48367 | 31899 ft | 444 kts | 340° |
| 2026-05-04 01:32 | 42.47800 | -111.50884 | 31892 ft | 444 kts | 340° |
| 2026-05-04 01:33 | 42.53697 | -111.53401 | 31900 ft | 444 kts | 340° |
| 2026-05-04 01:33 | 42.59593 | -111.55921 | 31911 ft | 443 kts | 340° |
| 2026-05-04 01:34 | 42.65474 | -111.58437 | 31910 ft | 443 kts | 340° |
| 2026-05-04 01:34 | 42.71346 | -111.60955 | 31912 ft | 442 kts | 340° |
| 2026-05-04 01:35 | 42.77214 | -111.63477 | 31910 ft | 442 kts | 340° |
| 2026-05-04 01:35 | 42.83050 | -111.65988 | 31915 ft | 442 kts | 340° |
| 2026-05-04 01:36 | 42.88910 | -111.68516 | 31909 ft | 441 kts | 340° |
| 2026-05-04 01:36 | 42.94764 | -111.71046 | 31915 ft | 441 kts | 340° |
| 2026-05-04 01:37 | 43.00610 | -111.73577 | 31914 ft | 441 kts | 340° |
| 2026-05-04 01:37 | 43.06460 | -111.76115 | 31916 ft | 441 kts | 340° |
| 2026-05-04 01:38 | 43.12308 | -111.78657 | 31912 ft | 440 kts | 340° |
| 2026-05-04 01:38 | 43.18152 | -111.81202 | 31914 ft | 441 kts | 340° |
| 2026-05-04 01:39 | 43.24006 | -111.83758 | 31909 ft | 441 kts | 340° |
| 2026-05-04 01:39 | 43.29814 | -111.86299 | 31916 ft | 441 kts | 340° |
| 2026-05-04 01:40 | 43.35671 | -111.88864 | 31921 ft | 441 kts | 341° |
| 2026-05-04 01:40 | 43.41528 | -111.91436 | 31928 ft | 442 kts | 341° |
| 2026-05-04 01:41 | 43.47380 | -111.94012 | 31931 ft | 442 kts | 341° |
| 2026-05-04 01:41 | 43.53236 | -111.96595 | 31937 ft | 442 kts | 341° |
| 2026-05-04 01:42 | 43.59097 | -111.99184 | 31937 ft | 442 kts | 341° |
| 2026-05-04 01:42 | 43.64956 | -112.01778 | 31924 ft | 442 kts | 342° |
| 2026-05-04 01:43 | 43.70815 | -112.04377 | 31910 ft | 442 kts | 342° |
| 2026-05-04 01:43 | 43.76670 | -112.06980 | 31907 ft | 442 kts | 342° |
| 2026-05-04 01:44 | 43.82523 | -112.09587 | 31907 ft | 442 kts | 342° |
| 2026-05-04 01:44 | 43.88376 | -112.12199 | 31900 ft | 442 kts | 342° |
| 2026-05-04 01:45 | 43.94223 | -112.14814 | 31888 ft | 441 kts | 342° |
| 2026-05-04 01:45 | 44.02989 | -112.18746 | 31878 ft | 441 kts | 342° |
| 2026-05-04 01:46 | 44.08757 | -112.21617 | 31875 ft | 441 kts | 332° |
| 2026-05-04 01:46 | 44.13792 | -112.26439 | 31878 ft | 443 kts | 325° |
| 2026-05-04 01:47 | 44.18783 | -112.31457 | 31880 ft | 443 kts | 325° |
| 2026-05-04 01:47 | 44.23778 | -112.36488 | 31890 ft | 443 kts | 325° |
| 2026-05-04 01:48 | 44.28776 | -112.41531 | 31880 ft | 442 kts | 325° |
| 2026-05-04 01:48 | 44.33767 | -112.46577 | 31892 ft | 442 kts | 325° |
| 2026-05-04 01:49 | 44.38746 | -112.51621 | 31887 ft | 442 kts | 325° |
| 2026-05-04 01:49 | 44.43698 | -112.56647 | 31884 ft | 443 kts | 325° |
| 2026-05-04 01:50 | 44.48681 | -112.61717 | 31892 ft | 443 kts | 325° |
| 2026-05-04 01:50 | 44.53661 | -112.66795 | 31896 ft | 442 kts | 325° |
| 2026-05-04 01:51 | 44.58638 | -112.71881 | 31902 ft | 442 kts | 325° |
| 2026-05-04 01:51 | 44.63612 | -112.76974 | 31899 ft | 442 kts | 325° |
| 2026-05-04 01:52 | 44.68569 | -112.82060 | 31893 ft | 441 kts | 325° |
| 2026-05-04 01:52 | 44.73519 | -112.87151 | 31889 ft | 441 kts | 325° |
| 2026-05-04 01:53 | 44.78430 | -112.92211 | 31883 ft | 440 kts | 325° |
| 2026-05-04 01:53 | 44.83362 | -112.97305 | 31875 ft | 440 kts | 325° |
| 2026-05-04 01:54 | 44.88294 | -113.02411 | 31874 ft | 439 kts | 325° |
| 2026-05-04 01:54 | 44.93215 | -113.07515 | 31873 ft | 439 kts | 325° |
| 2026-05-04 01:55 | 44.98125 | -113.12620 | 31871 ft | 439 kts | 325° |
| 2026-05-04 01:55 | 45.03042 | -113.17742 | 31874 ft | 438 kts | 325° |
| 2026-05-04 01:56 | 45.07948 | -113.22864 | 31875 ft | 438 kts | 325° |
| 2026-05-04 01:56 | 45.12851 | -113.27993 | 31881 ft | 438 kts | 325° |
| 2026-05-04 01:57 | 45.17721 | -113.33095 | 31881 ft | 438 kts | 325° |
| 2026-05-04 01:57 | 45.22623 | -113.38236 | 31881 ft | 438 kts | 325° |
| 2026-05-04 01:58 | 45.27517 | -113.43391 | 31882 ft | 438 kts | 325° |
| 2026-05-04 01:58 | 45.32411 | -113.48559 | 31881 ft | 438 kts | 325° |
| 2026-05-04 01:59 | 45.37303 | -113.53726 | 31885 ft | 438 kts | 325° |
| 2026-05-04 01:59 | 45.42191 | -113.58899 | 31881 ft | 438 kts | 325° |
| 2026-05-04 02:00 | 45.47082 | -113.64088 | 31882 ft | 438 kts | 325° |
| 2026-05-04 02:00 | 45.49532 | -113.66687 | 31619 ft | 441 kts | 325° |
| 2026-05-04 02:00 | 45.51988 | -113.69299 | 31323 ft | 440 kts | 325° |
| 2026-05-04 02:01 | 45.54459 | -113.71931 | 30686 ft | 445 kts | 325° |
| 2026-05-04 02:01 | 45.56923 | -113.74560 | 30086 ft | 441 kts | 325° |
| 2026-05-04 02:01 | 45.59368 | -113.77166 | 29452 ft | 435 kts | 325° |
| 2026-05-04 02:01 | 45.61779 | -113.79737 | 28896 ft | 430 kts | 325° |
| 2026-05-04 02:02 | 45.64162 | -113.82285 | 28318 ft | 426 kts | 325° |
| 2026-05-04 02:02 | 45.66525 | -113.84812 | 27755 ft | 423 kts | 325° |
| 2026-05-04 02:02 | 45.68873 | -113.87324 | 27195 ft | 419 kts | 325° |
| 2026-05-04 02:02 | 45.71196 | -113.89811 | 26636 ft | 417 kts | 324° |
| 2026-05-04 02:03 | 45.73507 | -113.92286 | 26093 ft | 413 kts | 324° |
| 2026-05-04 02:03 | 45.75798 | -113.94743 | 25548 ft | 410 kts | 324° |
| 2026-05-04 02:03 | 45.78044 | -113.97154 | 25003 ft | 407 kts | 324° |
| 2026-05-04 02:03 | 45.80300 | -113.99576 | 24469 ft | 404 kts | 324° |
| 2026-05-04 02:04 | 45.82544 | -114.01988 | 23940 ft | 401 kts | 324° |
| 2026-05-04 02:04 | 45.84774 | -114.04387 | 23380 ft | 398 kts | 324° |
| 2026-05-04 02:04 | 45.86975 | -114.06759 | 22879 ft | 393 kts | 325° |
| 2026-05-04 02:04 | 45.89366 | -114.08566 | 22328 ft | 388 kts | 345° |
| 2026-05-04 02:05 | 45.92025 | -114.08894 | 21892 ft | 385 kts | 3° |
| 2026-05-04 02:05 | 45.94700 | -114.08639 | 21352 ft | 385 kts | 2° |
| 2026-05-04 02:05 | 45.97371 | -114.08502 | 20831 ft | 383 kts | 1° |
| 2026-05-04 02:05 | 46.00024 | -114.08419 | 20320 ft | 380 kts | 0° |
| 2026-05-04 02:06 | 46.02662 | -114.08362 | 19822 ft | 378 kts | 359° |
| 2026-05-04 02:06 | 46.05286 | -114.08331 | 19327 ft | 377 kts | 359° |
| 2026-05-04 02:06 | 46.07907 | -114.08313 | 18813 ft | 376 kts | 359° |
| 2026-05-04 02:06 | 46.10484 | -114.08305 | 18346 ft | 374 kts | 358° |
| 2026-05-04 02:07 | 46.13101 | -114.08302 | 17954 ft | 372 kts | 358° |
| 2026-05-04 02:07 | 46.15656 | -114.08302 | 17468 ft | 370 kts | 358° |
| 2026-05-04 02:07 | 46.18228 | -114.08302 | 16968 ft | 367 kts | 358° |
| 2026-05-04 02:07 | 46.20771 | -114.08307 | 16484 ft | 364 kts | 358° |
| 2026-05-04 02:08 | 46.23301 | -114.08313 | 16001 ft | 362 kts | 358° |
| 2026-05-04 02:08 | 46.24965 | -114.08316 | 15687 ft | 360 kts | 358° |
| 2026-05-04 02:08 | 46.27461 | -114.08320 | 15202 ft | 357 kts | 358° |
| 2026-05-04 02:08 | 46.29937 | -114.08325 | 14732 ft | 353 kts | 358° |
| 2026-05-04 02:09 | 46.32359 | -114.08328 | 14261 ft | 343 kts | 358° |
| 2026-05-04 02:09 | 46.34714 | -114.08335 | 13811 ft | 334 kts | 359° |
| 2026-05-04 02:09 | 46.37014 | -114.08336 | 13351 ft | 326 kts | 358° |
| 2026-05-04 02:09 | 46.39252 | -114.08342 | 12947 ft | 317 kts | 358° |
| 2026-05-04 02:10 | 46.41434 | -114.08347 | 12529 ft | 310 kts | 358° |
| 2026-05-04 02:10 | 46.43571 | -114.08348 | 12113 ft | 304 kts | 358° |
| 2026-05-04 02:10 | 46.45664 | -114.08351 | 11718 ft | 298 kts | 358° |
| 2026-05-04 02:10 | 46.47721 | -114.08356 | 11328 ft | 293 kts | 358° |
| 2026-05-04 02:11 | 46.49748 | -114.08360 | 10935 ft | 289 kts | 358° |
| 2026-05-04 02:11 | 46.51745 | -114.08365 | 10537 ft | 285 kts | 358° |
| 2026-05-04 02:11 | 46.53688 | -114.08367 | 10170 ft | 282 kts | 358° |
| 2026-05-04 02:11 | 46.55641 | -114.08372 | 9789 ft | 279 kts | 358° |
| 2026-05-04 02:12 | 46.57574 | -114.08372 | 9375 ft | 277 kts | 358° |
| 2026-05-04 02:12 | 46.59489 | -114.08369 | 8977 ft | 274 kts | 358° |
| 2026-05-04 02:12 | 46.61390 | -114.08370 | 8548 ft | 273 kts | 358° |
| 2026-05-04 02:12 | 46.63261 | -114.08371 | 8181 ft | 261 kts | 358° |
| 2026-05-04 02:13 | 46.65032 | -114.08365 | 7738 ft | 249 kts | 358° |
| 2026-05-04 02:13 | 46.66722 | -114.08363 | 7405 ft | 236 kts | 357° |
| 2026-05-04 02:13 | 46.68330 | -114.08363 | 7080 ft | 227 kts | 357° |
| 2026-05-04 02:13 | 46.69896 | -114.08366 | 6838 ft | 222 kts | 357° |
| 2026-05-04 02:14 | 46.71447 | -114.08356 | 6627 ft | 226 kts | 0° |
| 2026-05-04 02:14 | 46.73000 | -114.08069 | 6478 ft | 221 kts | 7° |
| 2026-05-04 02:14 | 46.74455 | -114.07704 | 6443 ft | 205 kts | 6° |
| 2026-05-04 02:14 | 46.75839 | -114.07387 | 6408 ft | 198 kts | 5° |
| 2026-05-04 02:15 | 46.77169 | -114.07099 | 6393 ft | 190 kts | 5° |
| 2026-05-04 02:15 | 46.78434 | -114.06554 | 6257 ft | 195 kts | 24° |
| 2026-05-04 02:15 | 46.79589 | -114.05531 | 6005 ft | 191 kts | 30° |
| 2026-05-04 02:15 | 46.80642 | -114.04466 | 5704 ft | 177 kts | 30° |
| 2026-05-04 02:16 | 46.81609 | -114.03501 | 5453 ft | 161 kts | 30° |
| 2026-05-04 02:16 | 46.82500 | -114.02623 | 5140 ft | 147 kts | 31° |
| 2026-05-04 02:16 | 46.83311 | -114.01827 | 4966 ft | 136 kts | 28° |
| 2026-05-04 02:16 | 46.84155 | -114.01283 | 4793 ft | 134 kts | 16° |
| 2026-05-04 02:17 | 46.85072 | -114.01068 | 4609 ft | 133 kts | 2° |
| 2026-05-04 02:17 | 46.86000 | -114.01200 | 4436 ft | 136 kts | 347° |
| 2026-05-04 02:17 | 46.86887 | -114.01668 | 4234 ft | 135 kts | 332° |
| 2026-05-04 02:17 | 46.87648 | -114.02448 | 4056 ft | 132 kts | 317° |
| 2026-05-04 02:18 | 46.88256 | -114.03426 | 3907 ft | 129 kts | 310° |
| 2026-05-04 02:18 | 46.88846 | -114.04434 | 3779 ft | 131 kts | 311° |
| 2026-05-04 02:18 | 46.89436 | -114.05472 | 3635 ft | 133 kts | 311° |
| 2026-05-04 02:18 | 46.90055 | -114.06520 | 3455 ft | 136 kts | 311° |
| 2026-05-04 02:19 | 46.90670 | -114.07568 | 3277 ft | 136 kts | 311° |
| 2026-05-04 02:19 | 46.91259 | -114.08567 | 3202 ft | 118 kts | 311° |
| 2026-05-04 02:19 | 46.91692 | -114.09305 | 3203 ft | 61 kts | 310° |
| 2026-05-04 02:19 | 46.91899 | -114.09657 | 3201 ft | 33 kts | 311° |
| 2026-05-04 02:20 | 46.92007 | -114.09841 | 3204 ft | 16 kts | 310° |
| 2026-05-04 02:20 | 46.92101 | -114.09909 | 3203 ft | 15 kts | 16° |
| 2026-05-04 02:20 | 46.92168 | -114.09837 | 3205 ft | 12 kts | 51° |
| 2026-05-04 02:20 | 46.92157 | -114.09726 | 3206 ft | 13 kts | 129° |
| 2026-05-04 02:21 | 46.92095 | -114.09620 | 3204 ft | 15 kts | 130° |
| 2026-05-04 02:21 | 46.92018 | -114.09488 | 3205 ft | 19 kts | 130° |
| 2026-05-04 02:21 | 46.91929 | -114.09336 | 3203 ft | 21 kts | 131° |
| 2026-05-04 02:21 | 46.91833 | -114.09172 | 3203 ft | 21 kts | 131° |
| 2026-05-04 02:22 | 46.91785 | -114.09059 | 3202 ft | 12 kts | 88° |
| 2026-05-04 02:22 | 46.91836 | -114.08962 | 3205 ft | 13 kts | 39° |
| 2026-05-04 02:22 | 46.91906 | -114.08874 | 3203 ft | 11 kts | 41° |
| 2026-05-04 02:22 | 46.91929 | -114.08789 | 3206 ft | 10 kts | 111° |
| 2026-05-04 02:23 | 46.91881 | -114.08696 | 3206 ft | 12 kts | 130° |
| 2026-05-04 02:23 | 46.91831 | -114.08610 | 3206 ft | 7 kts | 120° |
| 2026-05-04 02:23 | 46.91841 | -114.08539 | 3206 ft | 6 kts | 63° |
| 2026-05-04 02:23 | 46.91853 | -114.08506 | 3206 ft | 0 kts | 62° |